Time;durP1;ratioP1;P1;durP2;ratioP2;P2;SDS_P1;SDS_P2;PMS_P1;PMS_P2;Temp;Humidity;BMP_temperature;BMP_pressure;BME280_temperature;BME280_humidity;BME280_pressure;Samples;Min_cycle;Max_cycle;Signal;HPM_P1;HPM_P2
2023/09/07 00:01:14;;;;;;;6.10;5.00;;;19.40;99.90;;;;;;5015976;28;20494;-78
2023/09/07 00:03:41;;;;;;;8.73;5.73;;;19.40;99.90;;;;;;5016316;28;20453;-79
2023/09/07 00:06:08;;;;;;;6.63;4.30;;;19.40;99.90;;;;;;5015958;28;20453;-78
2023/09/07 00:08:35;;;;;;;6.70;4.50;;;19.40;99.90;;;;;;5016455;28;20485;-79
2023/09/07 00:11:04;;;;;;;5.50;4.40;;;19.40;99.90;;;;;;5022679;28;21053;-78
2023/09/07 00:13:31;;;;;;;5.30;4.20;;;19.40;99.90;;;;;;5016353;28;20464;-78
2023/09/07 00:16:01;;;;;;;9.53;5.70;;;19.40;99.90;;;;;;5016323;28;21112;-78
2023/09/07 00:18:28;;;;;;;5.70;4.37;;;19.40;99.90;;;;;;5016210;28;20457;-79
2023/09/07 00:20:55;;;;;;;9.70;4.67;;;19.30;99.90;;;;;;5033198;28;20498;-78
2023/09/07 00:23:22;;;;;;;4.63;4.23;;;19.30;99.90;;;;;;5035276;28;20453;-79
2023/09/07 00:25:49;;;;;;;5.33;3.90;;;19.30;99.90;;;;;;5023810;28;20446;-79
2023/09/07 00:28:15;;;;;;;4.77;4.23;;;19.30;99.90;;;;;;5015795;28;20445;-79
2023/09/07 00:30:42;;;;;;;7.13;4.53;;;19.20;99.90;;;;;;5031776;28;20476;-78
2023/09/07 00:33:11;;;;;;;5.83;5.30;;;19.20;99.90;;;;;;5038390;28;20453;-79
2023/09/07 00:35:38;;;;;;;8.40;4.60;;;19.20;99.90;;;;;;5039851;28;20506;-78
2023/09/07 00:38:05;;;;;;;5.70;4.87;;;19.20;99.90;;;;;;5039656;28;20458;-78
2023/09/07 00:40:32;;;;;;;5.67;5.07;;;19.20;99.90;;;;;;5039434;28;20473;-78
2023/09/07 00:43:00;;;;;;;7.93;5.37;;;19.20;99.90;;;;;;5040283;28;20517;-79
2023/09/07 00:45:26;;;;;;;5.63;4.30;;;19.20;99.90;;;;;;5039822;28;20531;-79
2023/09/07 00:47:53;;;;;;;5.67;4.87;;;19.20;99.90;;;;;;5024578;28;20503;-79
2023/09/07 00:50:22;;;;;;;6.60;4.83;;;19.20;99.90;;;;;;5025621;28;20484;-79
2023/09/07 00:52:49;;;;;;;8.57;5.13;;;19.10;99.90;;;;;;5040150;28;20444;-79
2023/09/07 00:55:16;;;;;;;6.27;5.67;;;19.10;99.90;;;;;;5039382;28;20539;-78
2023/09/07 00:57:43;;;;;;;5.20;4.50;;;19.10;99.90;;;;;;5036601;28;20834;-78
2023/09/07 01:00:11;;;;;;;5.40;4.90;;;19.10;99.90;;;;;;5025249;28;20475;-79
2023/09/07 01:02:38;;;;;;;4.90;4.00;;;19.10;99.90;;;;;;5016569;28;20536;-78
2023/09/07 01:05:06;;;;;;;6.60;4.83;;;19.00;99.90;;;;;;5018956;28;20545;-78
2023/09/07 01:07:39;;;;;;;5.93;4.23;;;19.00;99.90;;;;;;5024609;28;20456;-78
2023/09/07 01:10:07;;;;;;;5.73;5.13;;;19.00;99.90;;;;;;5036149;28;20477;-78
2023/09/07 01:12:34;;;;;;;5.30;4.80;;;18.90;99.90;;;;;;5035896;28;20458;-78
2023/09/07 01:15:01;;;;;;;5.40;4.90;;;19.00;99.90;;;;;;5033717;28;20456;-78
2023/09/07 01:17:29;;;;;;;5.40;4.57;;;18.90;99.90;;;;;;5024388;28;20460;-78
2023/09/07 01:19:59;;;;;;;4.73;4.23;;;18.90;99.90;;;;;;5034918;28;20540;-77
2023/09/07 01:22:27;;;;;;;5.47;4.50;;;18.90;99.90;;;;;;5017342;28;20531;-78
2023/09/07 01:24:54;;;;;;;6.03;5.37;;;18.90;99.90;;;;;;5019273;28;20461;-78
2023/09/07 01:27:21;;;;;;;4.83;4.27;;;18.90;99.90;;;;;;5037537;28;20452;-78
2023/09/07 01:29:48;;;;;;;6.07;4.47;;;18.80;99.90;;;;;;5032237;28;21124;-79
2023/09/07 01:32:15;;;;;;;8.87;4.80;;;18.80;99.90;;;;;;5017506;28;20450;-79
2023/09/07 01:34:42;;;;;;;5.83;5.23;;;18.80;99.90;;;;;;5018690;28;20451;-79
2023/09/07 01:37:09;;;;;;;8.00;4.60;;;18.80;99.90;;;;;;5038940;28;20962;-78
2023/09/07 01:39:37;;;;;;;7.43;4.43;;;18.80;99.90;;;;;;5036726;28;20472;-79
2023/09/07 01:42:04;;;;;;;6.23;5.10;;;18.80;99.90;;;;;;5020553;28;20500;-79
2023/09/07 01:44:31;;;;;;;7.17;4.37;;;18.70;99.90;;;;;;5018902;28;20442;-79
2023/09/07 01:46:58;;;;;;;6.80;5.00;;;18.70;99.90;;;;;;5019636;28;20544;-79
2023/09/07 01:49:25;;;;;;;6.43;4.63;;;18.70;99.90;;;;;;5019439;28;20492;-78
2023/09/07 01:51:53;;;;;;;5.37;4.43;;;18.70;99.90;;;;;;5038916;28;20507;-79
2023/09/07 01:54:21;;;;;;;7.97;4.73;;;18.70;99.90;;;;;;5040349;28;20457;-79
2023/09/07 01:56:50;;;;;;;6.80;4.60;;;18.60;99.90;;;;;;5023416;28;20446;-78
2023/09/07 01:59:16;;;;;;;6.23;4.43;;;18.60;99.90;;;;;;5019957;28;20480;-79
2023/09/07 02:01:43;;;;;;;7.27;5.20;;;18.60;99.90;;;;;;5035509;28;20894;-79
2023/09/07 02:04:10;;;;;;;5.93;4.93;;;18.60;99.90;;;;;;5019348;28;20453;-79
2023/09/07 02:06:37;;;;;;;5.80;5.13;;;18.60;99.90;;;;;;5019974;28;20454;-79
2023/09/07 02:09:05;;;;;;;5.87;4.90;;;18.60;99.90;;;;;;5023893;28;20504;-79
2023/09/07 02:11:31;;;;;;;5.50;4.63;;;18.60;99.90;;;;;;5035917;28;20460;-79
2023/09/07 02:13:59;;;;;;;6.10;4.83;;;18.60;99.90;;;;;;5038497;28;21030;-80
2023/09/07 02:16:27;;;;;;;4.33;3.87;;;18.50;99.90;;;;;;5039174;28;20456;-79
2023/09/07 02:19:02;;;;;;;5.20;4.70;;;18.50;99.90;;;;;;5035912;28;20500;-79
2023/09/07 02:21:28;;;;;;;5.73;4.60;;;18.50;99.90;;;;;;5034995;28;20515;-79
2023/09/07 02:23:55;;;;;;;6.23;4.37;;;18.50;99.90;;;;;;5038042;28;20452;-79
2023/09/07 02:26:22;;;;;;;6.03;5.00;;;18.50;99.90;;;;;;5039261;28;20456;-79
2023/09/07 02:28:49;;;;;;;5.53;4.30;;;18.40;99.90;;;;;;5036821;28;20484;-79
2023/09/07 02:31:17;;;;;;;4.60;4.20;;;18.40;99.90;;;;;;5033655;28;20499;-79
2023/09/07 02:33:44;;;;;;;8.83;4.20;;;18.40;99.90;;;;;;5039623;28;20452;-79
2023/09/07 02:36:11;;;;;;;6.43;4.77;;;18.40;99.90;;;;;;5038380;28;20463;-79
2023/09/07 02:38:37;;;;;;;5.83;4.83;;;18.40;99.90;;;;;;5038959;28;20458;-79
2023/09/07 02:41:04;;;;;;;7.40;5.30;;;18.30;99.90;;;;;;5023098;28;20541;-79
2023/09/07 02:43:31;;;;;;;6.70;5.20;;;18.30;99.90;;;;;;5021324;28;20862;-79
2023/09/07 02:45:58;;;;;;;5.77;4.57;;;18.30;99.90;;;;;;5038500;28;20453;-79
2023/09/07 02:48:27;;;;;;;7.80;5.37;;;18.20;99.90;;;;;;5039068;28;20474;-79
2023/09/07 02:50:53;;;;;;;6.07;5.27;;;18.20;99.90;;;;;;5019630;28;20902;-79
2023/09/07 02:53:20;;;;;;;6.80;5.20;;;18.20;99.90;;;;;;5018450;28;20459;-79
2023/09/07 02:55:47;;;;;;;6.93;5.57;;;18.20;99.90;;;;;;5018453;28;20533;-79
2023/09/07 02:58:14;;;;;;;6.93;4.97;;;18.20;99.90;;;;;;5019142;28;20460;-79
2023/09/07 03:00:44;;;;;;;7.37;5.50;;;18.20;99.90;;;;;;5017779;28;20483;-79
2023/09/07 03:03:12;;;;;;;5.30;4.73;;;18.10;99.90;;;;;;5018140;28;20924;-79
2023/09/07 03:05:41;;;;;;;5.50;4.80;;;18.10;99.90;;;;;;5037101;28;20868;-79
2023/09/07 03:08:08;;;;;;;8.20;5.63;;;18.10;99.90;;;;;;5038701;28;20440;-79
2023/09/07 03:10:36;;;;;;;5.70;5.03;;;18.10;99.90;;;;;;5021667;28;20470;-79
2023/09/07 03:13:03;;;;;;;6.67;5.73;;;18.10;99.90;;;;;;5018520;28;20961;-79
2023/09/07 03:15:30;;;;;;;7.70;5.30;;;18.00;99.90;;;;;;5034223;28;20829;-78
2023/09/07 03:17:57;;;;;;;6.67;5.27;;;18.00;99.90;;;;;;5038219;28;20971;-79
2023/09/07 03:20:24;;;;;;;5.67;4.83;;;18.00;99.90;;;;;;5025382;28;20481;-78
2023/09/07 03:22:52;;;;;;;7.10;4.70;;;18.00;99.90;;;;;;5019248;28;20487;-79
2023/09/07 03:25:19;;;;;;;5.57;5.00;;;18.00;99.90;;;;;;5039769;28;20507;-79
2023/09/07 03:27:45;;;;;;;5.70;4.63;;;17.90;99.90;;;;;;5040113;28;20459;-80
2023/09/07 03:30:13;;;;;;;6.00;5.40;;;17.90;99.90;;;;;;5027508;28;20915;-79
2023/09/07 03:32:39;;;;;;;6.30;4.90;;;17.90;99.90;;;;;;5019248;28;20528;-79
2023/09/07 03:35:09;;;;;;;5.10;4.43;;;17.90;99.90;;;;;;5036637;28;20479;-78
2023/09/07 03:37:37;;;;;;;5.73;4.97;;;17.90;99.90;;;;;;5039463;28;20981;-79
2023/09/07 03:40:07;;;;;;;7.20;4.77;;;17.90;99.90;;;;;;5028864;28;21039;-79
2023/09/07 03:42:33;;;;;;;7.17;4.87;;;17.90;99.90;;;;;;5019794;28;20501;-79
2023/09/07 03:45:00;;;;;;;6.20;4.80;;;17.90;99.90;;;;;;5035788;28;20458;-79
2023/09/07 03:47:29;;;;;;;5.80;4.63;;;17.80;99.90;;;;;;5038503;28;20453;-79
2023/09/07 03:49:56;;;;;;;8.40;5.17;;;17.80;99.90;;;;;;5056593;22;20492;-78
2023/09/07 03:52:24;;;;;;;6.63;4.13;;;17.80;99.90;;;;;;5032849;28;20453;-78
2023/09/07 03:54:51;;;;;;;6.73;4.97;;;17.80;99.90;;;;;;5028529;28;20463;-78
2023/09/07 03:57:19;;;;;;;5.27;4.77;;;17.80;99.90;;;;;;5032062;28;20484;-77
2023/09/07 03:59:46;;;;;;;5.33;4.73;;;17.80;99.90;;;;;;5030975;28;20487;-78
2023/09/07 04:02:13;;;;;;;6.10;4.20;;;17.80;99.90;;;;;;5011924;28;20520;-78
2023/09/07 04:04:40;;;;;;;6.00;4.83;;;17.80;99.90;;;;;;5020375;28;20465;-78
2023/09/07 04:07:07;;;;;;;10.20;4.90;;;17.80;99.90;;;;;;5020660;28;20520;-76
2023/09/07 04:09:33;;;;;;;7.73;5.20;;;17.80;99.90;;;;;;5020535;28;20455;-78
2023/09/07 04:12:00;;;;;;;5.00;4.50;;;17.70;99.90;;;;;;5018773;28;20445;-77
2023/09/07 04:14:29;;;;;;;6.13;4.53;;;17.80;99.90;;;;;;5012369;28;20525;-78
2023/09/07 04:16:56;;;;;;;6.97;4.70;;;17.80;99.90;;;;;;5017031;28;20825;-77
2023/09/07 04:19:22;;;;;;;5.43;4.20;;;17.70;99.90;;;;;;5020165;28;20831;-77
2023/09/07 04:21:49;;;;;;;5.37;4.43;;;17.70;99.90;;;;;;5012172;28;20493;-78
2023/09/07 04:24:16;;;;;;;6.00;4.60;;;17.70;99.90;;;;;;5012253;28;20495;-78
2023/09/07 04:26:43;;;;;;;6.20;5.50;;;17.70;99.90;;;;;;5019478;28;20448;-78
2023/09/07 04:29:10;;;;;;;6.27;5.17;;;17.70;99.90;;;;;;5019399;28;20460;-78
2023/09/07 04:31:38;;;;;;;7.27;4.97;;;17.70;99.90;;;;;;5018820;28;20485;-80
2023/09/07 04:34:05;;;;;;;5.30;4.57;;;17.70;99.90;;;;;;5017609;28;20491;-78
2023/09/07 04:36:32;;;;;;;8.10;5.70;;;17.70;99.90;;;;;;5016579;28;20445;-78
2023/09/07 04:38:59;;;;;;;5.10;4.60;;;17.70;99.90;;;;;;5016682;28;20457;-78
2023/09/07 04:41:26;;;;;;;5.23;4.60;;;17.60;99.90;;;;;;5014653;28;20559;-78
2023/09/07 04:43:52;;;;;;;6.60;4.60;;;17.60;99.90;;;;;;5016427;28;20499;-78
2023/09/07 04:46:23;;;;;;;5.70;5.10;;;17.60;99.90;;;;;;5016922;28;20460;-78
2023/09/07 04:48:51;;;;;;;5.50;4.37;;;17.60;99.90;;;;;;5015832;28;20536;-81
2023/09/07 04:51:17;;;;;;;6.27;4.50;;;17.60;99.90;;;;;;5016421;28;20481;-78
2023/09/07 04:53:44;;;;;;;6.90;5.00;;;17.60;99.90;;;;;;5020924;28;20476;-77
2023/09/07 04:56:11;;;;;;;6.07;4.83;;;17.60;99.90;;;;;;5020981;28;20468;-78
2023/09/07 04:58:38;;;;;;;7.83;4.30;;;17.60;99.90;;;;;;5021566;28;20459;-78
2023/09/07 05:01:05;;;;;;;6.37;4.67;;;17.60;99.90;;;;;;5017599;28;20491;-78
2023/09/07 05:03:33;;;;;;;5.23;4.70;;;17.50;99.90;;;;;;5020967;28;20574;-77
2023/09/07 05:06:02;;;;;;;5.07;4.50;;;17.50;99.90;;;;;;5013994;28;20475;-78
2023/09/07 05:08:29;;;;;;;7.03;4.77;;;17.50;99.90;;;;;;5008902;28;20456;-77
2023/09/07 05:10:57;;;;;;;7.20;5.83;;;17.50;99.90;;;;;;5011102;28;20560;-77
2023/09/07 05:13:24;;;;;;;6.07;4.50;;;17.50;99.90;;;;;;5015632;28;20452;-77
2023/09/07 05:15:52;;;;;;;6.47;4.67;;;17.50;99.90;;;;;;5010223;28;20470;-78
2023/09/07 05:18:19;;;;;;;5.53;4.40;;;17.60;99.90;;;;;;5004208;28;21220;-77
2023/09/07 05:20:48;;;;;;;5.43;4.53;;;17.50;99.90;;;;;;4992606;28;20482;-78
2023/09/07 05:23:18;;;;;;;6.30;4.80;;;17.50;99.90;;;;;;5016633;28;21136;-78
2023/09/07 05:25:46;;;;;;;6.13;5.20;;;17.50;99.90;;;;;;5012209;28;20515;-78
2023/09/07 05:28:14;;;;;;;6.23;5.53;;;17.60;99.90;;;;;;5017344;28;21028;-78
2023/09/07 05:30:42;;;;;;;6.93;6.07;;;17.60;99.90;;;;;;5019716;28;20869;-78
2023/09/07 05:33:10;;;;;;;7.33;6.00;;;17.60;99.90;;;;;;5006299;28;20547;-77
2023/09/07 05:35:37;;;;;;;5.37;4.87;;;17.60;99.90;;;;;;5012706;28;20448;-78
2023/09/07 05:38:04;;;;;;;5.53;4.93;;;17.60;99.90;;;;;;5012978;28;20949;-77
2023/09/07 05:40:35;;;;;;;7.63;4.80;;;17.70;99.90;;;;;;5015718;28;20479;-77
2023/09/07 05:43:03;;;;;;;5.90;4.80;;;17.70;99.90;;;;;;5005337;28;20477;-78
2023/09/07 05:45:30;;;;;;;6.00;4.87;;;17.70;99.90;;;;;;5007980;28;20871;-77
2023/09/07 05:47:57;;;;;;;7.27;4.40;;;17.70;99.90;;;;;;5015792;28;20920;-76
2023/09/07 05:50:24;;;;;;;6.30;5.37;;;17.70;99.90;;;;;;5011230;28;20869;-77
2023/09/07 05:52:51;;;;;;;7.57;5.50;;;17.70;99.90;;;;;;5015185;28;20449;-78
2023/09/07 05:55:17;;;;;;;6.60;5.37;;;17.80;99.90;;;;;;5008236;28;20459;-78
2023/09/07 05:57:46;;;;;;;8.63;5.47;;;17.80;99.90;;;;;;5012483;28;20982;-78
2023/09/07 06:00:15;;;;;;;6.23;5.63;;;17.80;99.90;;;;;;5005677;28;20511;-77
2023/09/07 06:02:42;;;;;;;7.00;5.07;;;17.90;99.90;;;;;;5016028;28;20489;-77
2023/09/07 06:05:09;;;;;;;6.23;4.80;;;17.90;99.90;;;;;;5013836;28;20455;-78
2023/09/07 06:07:36;;;;;;;5.90;5.17;;;18.00;99.90;;;;;;4997872;28;20450;-78
2023/09/07 06:10:05;;;;;;;7.17;5.47;;;18.00;99.90;;;;;;5011333;28;21021;-77
2023/09/07 06:12:32;;;;;;;7.23;5.00;;;18.10;99.90;;;;;;4997982;28;20876;-78
2023/09/07 06:15:00;;;;;;;7.50;5.23;;;18.10;99.90;;;;;;4996705;28;20458;-77
2023/09/07 06:17:27;;;;;;;6.53;5.23;;;18.10;99.90;;;;;;4997224;28;20459;-77
2023/09/07 06:19:54;;;;;;;6.70;5.80;;;18.20;99.90;;;;;;5001432;28;20480;-77
2023/09/07 06:22:21;;;;;;;6.57;4.97;;;18.20;99.90;;;;;;5010679;28;20457;-77
2023/09/07 06:24:48;;;;;;;6.77;5.13;;;18.30;99.90;;;;;;5016509;28;20453;-78
2023/09/07 06:27:15;;;;;;;9.23;5.20;;;18.30;99.90;;;;;;5012033;28;20457;-78
2023/09/07 06:29:41;;;;;;;7.77;6.63;;;18.40;99.90;;;;;;5009188;28;20544;-78
2023/09/07 06:32:10;;;;;;;11.60;5.50;;;18.40;99.90;;;;;;5012139;28;20458;-78
2023/09/07 06:34:36;;;;;;;8.47;4.73;;;18.40;99.90;;;;;;5005887;28;20442;-78
2023/09/07 06:37:04;;;;;;;7.03;5.53;;;18.50;99.90;;;;;;5010433;28;20526;-78
2023/09/07 06:39:30;;;;;;;8.07;6.13;;;18.50;99.90;;;;;;5010380;28;20459;-78
2023/09/07 06:41:57;;;;;;;7.97;5.50;;;18.60;99.90;;;;;;5014398;28;20448;-78
2023/09/07 06:44:24;;;;;;;6.47;4.90;;;18.60;99.90;;;;;;5011881;28;20497;-78
2023/09/07 06:46:51;;;;;;;7.30;5.00;;;18.60;99.90;;;;;;5010886;28;20454;-79
2023/09/07 06:49:19;;;;;;;8.07;6.20;;;18.70;99.90;;;;;;5013431;28;20527;-79
2023/09/07 06:51:46;;;;;;;6.67;5.60;;;18.70;99.90;;;;;;5007439;28;21087;-79
2023/09/07 06:54:14;;;;;;;6.47;5.50;;;18.80;99.90;;;;;;5004955;28;20496;-79
2023/09/07 06:56:40;;;;;;;9.13;6.40;;;18.80;99.90;;;;;;5006807;28;20455;-80
2023/09/07 06:59:07;;;;;;;8.67;5.43;;;18.90;99.90;;;;;;5008996;28;20830;-77
2023/09/07 07:01:35;;;;;;;7.90;5.20;;;18.90;99.90;;;;;;4999359;28;20482;-79
2023/09/07 07:04:02;;;;;;;6.63;5.13;;;19.00;99.90;;;;;;5006897;28;20489;-81
2023/09/07 07:06:30;;;;;;;7.87;6.30;;;19.00;99.90;;;;;;5007588;28;20458;-79
2023/09/07 07:08:57;;;;;;;9.67;6.00;;;19.10;99.90;;;;;;4998330;28;20446;-79
2023/09/07 07:11:23;;;;;;;6.60;5.90;;;19.10;99.90;;;;;;5001364;28;20526;-80
2023/09/07 07:13:50;;;;;;;8.00;5.80;;;19.20;99.90;;;;;;5003526;28;20844;-80
2023/09/07 07:16:17;;;;;;;6.20;5.43;;;19.30;99.90;;;;;;5006992;28;20804;-80
2023/09/07 07:18:44;;;;;;;11.53;6.30;;;19.30;99.90;;;;;;5012601;28;20468;-79
2023/09/07 07:21:11;;;;;;;9.03;5.70;;;19.40;99.90;;;;;;4998651;28;20483;-79
2023/09/07 07:23:42;;;;;;;8.90;5.27;;;19.40;99.90;;;;;;4999521;28;20492;-78
2023/09/07 07:26:09;;;;;;;5.60;5.10;;;19.50;99.90;;;;;;5007967;28;20450;-80
2023/09/07 07:28:36;;;;;;;9.17;4.83;;;19.50;99.90;;;;;;5009295;28;20465;-79
2023/09/07 07:31:09;;;;;;;7.03;4.93;;;19.60;99.90;;;;;;5013587;28;20659;-80
2023/09/07 07:33:37;;;;;;;11.80;5.97;;;19.60;99.90;;;;;;5007050;28;20445;-80
2023/09/07 07:36:04;;;;;;;6.90;4.57;;;19.70;99.90;;;;;;5003154;28;20458;-78
2023/09/07 07:38:31;;;;;;;8.20;5.00;;;19.70;99.90;;;;;;5000853;28;20450;-78
2023/09/07 07:40:59;;;;;;;8.00;5.20;;;19.90;99.90;;;;;;4994632;28;20521;-79
2023/09/07 07:43:26;;;;;;;7.80;4.83;;;19.90;99.90;;;;;;4998518;28;20580;-79
2023/09/07 07:45:53;;;;;;;7.00;5.03;;;20.00;99.90;;;;;;5016312;28;20465;-79
2023/09/07 07:48:20;;;;;;;8.97;4.70;;;20.10;99.90;;;;;;5014320;28;20525;-79
2023/09/07 07:50:47;;;;;;;6.93;5.10;;;20.20;99.90;;;;;;5000368;28;20506;-79
2023/09/07 07:53:14;;;;;;;8.80;4.90;;;20.20;99.90;;;;;;4997552;28;20451;-79
2023/09/07 07:55:41;;;;;;;8.13;4.57;;;20.30;99.90;;;;;;5001874;28;20960;-79
2023/09/07 07:58:10;;;;;;;9.43;4.57;;;20.30;99.90;;;;;;4996079;28;20834;-79
2023/09/07 08:00:37;;;;;;;8.90;4.10;;;20.40;4.20;;;;;;5000831;28;20469;-79
2023/09/07 08:03:05;;;;;;;6.20;4.83;;;20.60;1.00;;;;;;4999425;28;20453;-79
2023/09/07 08:05:33;;;;;;;5.17;4.10;;;20.70;8.70;;;;;;5015232;28;20461;-78
2023/09/07 08:07:59;;;;;;;6.03;3.77;;;20.80;29.30;;;;;;5010385;28;20450;-78
2023/09/07 08:10:26;;;;;;;7.53;3.93;;;20.90;22.10;;;;;;5001833;28;20470;-78
2023/09/07 08:12:55;;;;;;;7.93;4.93;;;21.00;43.50;;;;;;5005662;28;20492;-79
2023/09/07 08:15:24;;;;;;;7.57;4.53;;;21.00;37.60;;;;;;5011612;28;20512;-81
2023/09/07 08:17:51;;;;;;;6.50;4.80;;;21.10;17.60;;;;;;5016259;28;20683;-78
2023/09/07 08:20:18;;;;;;;6.00;5.17;;;21.20;38.80;;;;;;5017216;28;20470;-77
2023/09/07 08:22:45;;;;;;;6.17;4.60;;;21.30;34.60;;;;;;5016330;28;20561;-77
2023/09/07 08:25:12;;;;;;;5.37;4.40;;;21.50;6.10;;;;;;5015405;28;20936;-77
2023/09/07 08:27:43;;;;;;;8.90;4.13;;;21.60;1.00;;;;;;5014546;28;20493;-77
2023/09/07 08:30:12;;;;;;;7.43;4.43;;;21.70;1.00;;;;;;5016119;28;20828;-77
2023/09/07 08:32:40;;;;;;;5.77;4.50;;;21.80;15.40;;;;;;5015882;28;20544;-78
2023/09/07 08:35:09;;;;;;;7.30;4.37;;;22.00;1.00;;;;;;5015802;28;20446;-77
2023/09/07 08:37:36;;;;;;;6.60;4.40;;;22.20;4.40;;;;;;5015708;28;20456;-77
2023/09/07 08:40:04;;;;;;;6.13;4.10;;;22.40;1.00;;;;;;5016141;28;20469;-78
2023/09/07 08:42:31;;;;;;;7.97;4.00;;;22.70;1.00;;;;;;5001080;28;20450;-77
2023/09/07 08:45:06;;;;;;;5.80;3.73;;;22.80;1.00;;;;;;5001482;28;20488;-78
2023/09/07 08:47:34;;;;;;;4.20;3.70;;;23.00;1.00;;;;;;5007366;28;20442;-77
2023/09/07 08:50:03;;;;;;;8.63;4.20;;;23.30;1.00;;;;;;5010576;28;20572;-78
2023/09/07 08:52:30;;;;;;;9.43;4.23;;;23.40;1.00;;;;;;5014707;28;20442;-77
2023/09/07 08:55:00;;;;;;;7.10;4.37;;;23.40;1.00;;;;;;5015725;28;20438;-77
2023/09/07 08:57:27;;;;;;;4.87;3.90;;;23.40;1.00;;;;;;5018756;28;20441;-78
2023/09/07 08:59:55;;;;;;;8.63;4.20;;;23.50;1.00;;;;;;5019326;28;20470;-77
2023/09/07 09:02:21;;;;;;;7.30;4.60;;;23.50;1.00;;;;;;5015060;28;20450;-77
2023/09/07 09:04:49;;;;;;;7.67;4.30;;;23.60;1.00;;;;;;5016702;28;20999;-78
2023/09/07 09:07:18;;;;;;;5.20;4.00;;;23.60;1.00;;;;;;5017550;28;20848;-77
2023/09/07 09:09:45;;;;;;;4.40;3.93;;;23.70;1.00;;;;;;5018959;28;20462;-78
2023/09/07 09:12:12;;;;;;;6.00;3.70;;;23.80;1.00;;;;;;5017043;28;20466;-79
2023/09/07 09:14:43;;;;;;;6.47;4.43;;;24.00;99.90;;;;;;5016631;28;20450;-79
2023/09/07 09:17:12;;;;;;;7.33;3.67;;;24.10;99.90;;;;;;5019492;28;20481;-78
2023/09/07 09:19:39;;;;;;;5.03;3.80;;;24.30;99.90;;;;;;5009196;28;20434;-76
2023/09/07 09:22:06;;;;;;;4.30;2.97;;;24.50;1.00;;;;;;5016812;28;20460;-78
2023/09/07 09:24:35;;;;;;;6.33;4.03;;;24.70;1.00;;;;;;5014820;28;20481;-78
2023/09/07 09:27:02;;;;;;;4.30;3.70;;;24.80;1.00;;;;;;5020665;28;20461;-78
2023/09/07 09:29:29;;;;;;;4.70;3.30;;;24.90;1.00;;;;;;5021342;28;20475;-77
2023/09/07 09:31:56;;;;;;;6.60;3.83;;;25.10;99.90;;;;;;5019885;28;20459;-78
2023/09/07 09:34:23;;;;;;;5.10;3.90;;;25.30;99.90;;;;;;5016947;28;20466;-78
2023/09/07 09:36:50;;;;;;;4.00;2.80;;;25.50;1.00;;;;;;5015744;28;20907;-78
2023/09/07 09:39:24;;;;;;;4.70;3.37;;;25.80;99.90;;;;;;5015495;28;21127;-79
2023/09/07 09:41:55;;;;;;;4.40;2.83;;;26.10;99.90;;;;;;5016468;28;20462;-76
2023/09/07 09:44:25;;;;;;;4.00;3.60;;;26.40;94.10;;;;;;5017643;28;20935;-78
2023/09/07 09:46:53;;;;;;;3.70;3.20;;;26.70;99.90;;;;;;5013772;28;20887;-78
2023/09/07 09:49:21;;;;;;;5.40;3.43;;;27.00;99.90;;;;;;5015561;28;20463;-77
2023/09/07 09:51:49;;;;;;;4.43;3.80;;;27.20;99.90;;;;;;5039064;22;21033;-78
2023/09/07 09:54:17;;;;;;;4.80;4.20;;;27.50;99.90;;;;;;5024308;28;20460;-78
2023/09/07 09:56:45;;;;;;;5.87;4.13;;;27.70;1.00;;;;;;5027139;28;20452;-77
2023/09/07 09:59:13;;;;;;;5.60;3.37;;;27.90;1.00;;;;;;5027702;28;20445;-79
2023/09/07 10:01:44;;;;;;;4.67;3.73;;;28.20;1.00;;;;;;5028322;28;20472;-79
2023/09/07 10:04:13;;;;;;;4.10;3.23;;;28.50;1.00;;;;;;5028002;28;20493;-78
2023/09/07 10:06:51;;;;;;;4.70;3.77;;;28.70;1.00;;;;;;5023046;28;20453;-77
2023/09/07 10:09:19;;;;;;;4.13;3.73;;;28.80;1.00;;;;;;5027878;28;20461;-77
2023/09/07 10:11:53;;;;;;;6.40;3.20;;;29.00;1.00;;;;;;5025511;28;20476;-78
2023/09/07 10:14:21;;;;;;;5.67;4.03;;;29.30;1.00;;;;;;5027234;28;20465;-77
2023/09/07 10:16:49;;;;;;;6.67;3.70;;;29.50;1.00;;;;;;5035829;28;20503;-78
2023/09/07 10:19:17;;;;;;;6.00;4.23;;;29.70;1.00;;;;;;5035456;28;20463;-79
2023/09/07 10:21:44;;;;;;;4.13;3.73;;;29.80;1.00;;;;;;5034358;28;20476;-78
2023/09/07 10:24:12;;;;;;;6.33;4.03;;;30.00;1.00;;;;;;5036890;28;20580;-80
2023/09/07 10:26:38;;;;;;;5.30;3.90;;;30.20;1.00;;;;;;5037179;28;20457;-79
2023/09/07 10:29:05;;;;;;;4.87;3.93;;;30.30;1.00;;;;;;5035973;28;20480;-79
2023/09/07 10:31:33;;;;;;;5.13;3.43;;;30.40;1.00;;;;;;5035677;28;20530;-79
2023/09/07 10:34:12;;;;;;;5.57;4.10;;;30.40;1.00;;;;;;5036756;28;20457;-79
2023/09/07 10:36:39;;;;;;;5.80;3.43;;;30.70;1.00;;;;;;5036848;28;20444;-80
2023/09/07 10:39:06;;;;;;;4.30;3.53;;;30.70;1.00;;;;;;5036958;28;20467;-80
2023/09/07 10:41:41;;;;;;;3.27;2.90;;;30.90;1.00;;;;;;5035763;28;20506;-78
2023/09/07 10:44:10;;;;;;;4.20;3.73;;;31.00;1.00;;;;;;5036714;28;20865;-79
2023/09/07 10:46:39;;;;;;;3.67;3.13;;;30.90;1.00;;;;;;5036090;28;20462;-79
2023/09/07 10:49:08;;;;;;;4.20;3.20;;;31.00;1.00;;;;;;5036136;28;20493;-79
2023/09/07 10:51:41;;;;;;;3.93;3.43;;;31.10;1.00;;;;;;5034347;28;20481;-80
2023/09/07 10:54:15;;;;;;;9.00;3.90;;;31.30;1.00;;;;;;5026578;28;21194;-79
2023/09/07 10:56:44;;;;;;;5.37;4.80;;;31.50;1.00;;;;;;5027575;28;20449;-78
2023/09/07 10:59:10;;;;;;;3.57;3.03;;;31.60;1.00;;;;;;5029557;28;20560;-80
2023/09/07 11:01:39;;;;;;;4.53;3.90;;;31.70;1.00;;;;;;5031755;28;20486;-79
2023/09/07 11:04:08;;;;;;;5.23;3.90;;;31.90;1.00;;;;;;5027420;28;20456;-79
2023/09/07 11:06:35;;;;;;;7.10;3.53;;;32.00;1.00;;;;;;5026773;28;20452;-79
2023/09/07 11:09:08;;;;;;;4.63;4.03;;;32.10;1.00;;;;;;5025402;28;20461;-76
2023/09/07 11:11:36;;;;;;;5.13;4.00;;;32.30;1.00;;;;;;5028293;28;20489;-80
2023/09/07 11:14:04;;;;;;;5.90;3.47;;;32.30;1.00;;;;;;5025918;28;20453;-80
2023/09/07 11:16:31;;;;;;;4.77;3.80;;;32.30;1.00;;;;;;5034762;28;20457;-76
2023/09/07 11:19:04;;;;;;;3.53;3.07;;;32.60;1.00;;;;;;5035522;28;20872;-79
2023/09/07 11:21:32;;;;;;;4.30;3.50;;;32.80;1.00;;;;;;5027449;28;20496;-78
2023/09/07 11:23:59;;;;;;;3.90;3.43;;;32.70;1.00;;;;;;5033023;28;20460;-79
2023/09/07 11:26:26;;;;;;;6.83;3.93;;;32.80;1.00;;;;;;5034823;28;20548;-80
2023/09/07 11:28:55;;;;;;;6.77;4.57;;;32.80;1.00;;;;;;5034852;28;20459;-80
2023/09/07 11:31:22;;;;;;;4.47;3.63;;;32.90;1.00;;;;;;5033543;28;21009;-79
2023/09/07 11:33:49;;;;;;;6.10;3.93;;;33.20;1.00;;;;;;5036282;28;20540;-79
2023/09/07 11:36:18;;;;;;;6.00;3.80;;;33.30;1.00;;;;;;5035922;28;20449;-80
2023/09/07 11:38:46;;;;;;;6.23;3.70;;;33.30;1.00;;;;;;5035778;28;20453;-78
2023/09/07 11:41:12;;;;;;;9.53;4.10;;;33.50;1.00;;;;;;5034920;28;20479;-79
2023/09/07 11:43:39;;;;;;;4.30;3.90;;;33.60;1.00;;;;;;5034448;28;20460;-75
2023/09/07 11:46:06;;;;;;;5.17;3.70;;;33.70;1.00;;;;;;5035918;28;20535;-80
2023/09/07 11:48:34;;;;;;;4.07;3.60;;;33.60;1.00;;;;;;5030901;28;20472;-79
2023/09/07 11:51:01;;;;;;;4.97;3.87;;;33.70;1.00;;;;;;5026858;28;21217;-81
2023/09/07 11:53:29;;;;;;;9.13;3.60;;;33.70;1.00;;;;;;5030303;28;20454;-79
2023/09/07 11:55:58;;;;;;;6.10;4.63;;;33.90;1.00;;;;;;5031520;28;20944;-79
2023/09/07 11:58:26;;;;;;;4.70;4.00;;;33.90;1.00;;;;;;5030908;28;20456;-79
2023/09/07 12:00:53;;;;;;;5.10;4.37;;;34.00;1.00;;;;;;5026551;28;20840;-78
2023/09/07 12:03:19;;;;;;;5.00;3.97;;;34.10;1.00;;;;;;5024149;28;20454;-80
2023/09/07 12:05:46;;;;;;;4.07;3.53;;;34.10;1.00;;;;;;5022590;28;20492;-79
2023/09/07 12:08:14;;;;;;;4.93;4.33;;;34.10;1.00;;;;;;5024520;28;20206;-80
2023/09/07 12:10:42;;;;;;;4.77;3.97;;;34.50;1.00;;;;;;5016182;28;20505;-80
2023/09/07 12:13:09;;;;;;;5.80;4.00;;;34.50;1.00;;;;;;5016803;28;20835;-79
2023/09/07 12:15:36;;;;;;;5.30;3.87;;;34.80;1.00;;;;;;5033821;28;20445;-80
2023/09/07 12:18:03;;;;;;;5.43;3.80;;;34.90;1.00;;;;;;5031333;28;20449;-80
2023/09/07 12:20:30;;;;;;;10.20;3.60;;;35.20;1.00;;;;;;5015109;28;20461;-78
2023/09/07 12:22:57;;;;;;;4.70;4.30;;;35.20;1.00;;;;;;5027153;28;20882;-79
2023/09/07 12:25:25;;;;;;;4.57;4.10;;;35.20;1.00;;;;;;5025985;28;20480;-78
2023/09/07 12:27:53;;;;;;;5.63;4.50;;;35.60;1.00;;;;;;5025821;28;20891;-79
2023/09/07 12:30:22;;;;;;;5.33;4.33;;;35.80;1.00;;;;;;5036386;28;20467;-78
2023/09/07 12:32:48;;;;;;;5.53;4.13;;;35.60;1.00;;;;;;5036763;28;20453;-79
2023/09/07 12:35:15;;;;;;;6.30;4.03;;;35.50;1.00;;;;;;5038122;28;20539;-80
2023/09/07 12:37:42;;;;;;;4.60;3.63;;;35.50;1.00;;;;;;5032924;28;20449;-79
2023/09/07 12:40:11;;;;;;;8.17;4.00;;;35.30;1.00;;;;;;5034077;28;20848;-80
2023/09/07 12:42:40;;;;;;;5.07;3.70;;;35.40;1.00;;;;;;5035748;28;20950;-79
2023/09/07 12:45:10;;;;;;;4.83;3.70;;;35.20;1.00;;;;;;5037860;28;20487;-79
2023/09/07 12:47:37;;;;;;;6.53;4.27;;;35.20;1.00;;;;;;5033249;28;20513;-80
2023/09/07 12:50:06;;;;;;;5.97;4.00;;;35.20;1.00;;;;;;5034995;28;20543;-81
2023/09/07 12:52:34;;;;;;;5.03;4.07;;;35.30;1.00;;;;;;5022730;28;20451;-79